Aérodrome :
LOGIN :

S'inscrire | Disclaimer

   EN    FR    IT 

 










Légende :    VFR   VFR Marginal   IFR   IFR Intensif   IFR Très Intensif
Visi : 
Plafond : 
>= 8 km
>= 3000ft
5 à 8 km
1000 à 3000 ft
1500m à 5 km
500 à 1000 ft
800 à 1500m
200 à 500 ft
< 800m
< 200 ft
Symboles :   Orages  Brouillard  Fortes neiges  Fortes précipitations  Vent > 20 kt
SIGMETs :   Divers  Orages  Givrage  Turbulence  Onde Orograph.  Cendres Volcan.







- Altitude de l'aérodrome : 39 ft
- Code IATA : ANR


EBAW - Anvers / Antwerpen Deurne

DERNIER METAR :
  • 231550Z 10005KT 060V130 9999 FEW030 17/09 Q1023 NOSIG

METARs EXPIRÉS :
  • 231520Z 10005KT 060V140 9999 FEW030 18/09 Q1022 NOSIG
  • 231450Z 11005KT 050V150 9999 FEW030 18/10 Q1023 NOSIG
  • 231420Z 13004KT 080V250 9999 FEW030 18/07 Q1023 NOSIG
  • 231350Z 09003KT 010V160 9999 FEW028 18/09 Q1023 NOSIG
  • 231320Z 12004KT 050V170 9999 FEW026 18/11 Q1024 NOSIG

TAF TAF EBAW
Valide du 23 à 15h jusqu'au 24 à 00h UTC


231410Z 2315/2324 10005KT 9999 FEW030
Pas de NOTAMs connus pour ce terrain.



MET'MAP, la Météo Aéronautique d'un coup d'oeil ! - Copyright ORBIFLY Décembre 2007 - Disclaimer

ORBIFLY MET'MAP TEAM :

Programmation & Développement : Alexandra Zaïnal
Conception & Développement : Baudouin d'Aumeries
Co-Programmation & Développement : Marc-Olivier Méhu
Soutien technique & logistique : Manuel Goepfert

Contact : metmap@orbifly.com




SOURCES & CREDITS :

   NOAA